LDSB/BWK METAR and TAF weather

Enter ICAO airport designator
Station Type Date Time Source
LDSB METAR 2019/05/25 21:00 UTC NOAA

LDSB 252100Z 24003KT 180V270 CAVOK 12/10 Q1017


Station Type Date Time Source
LDSB Decoded METAR 2019/05/25 21:00 UTC NOAA

Brac, Croatia (LDSB) 43-17-09N 016-40-47E
May 25, 2019 - 05:00 PM EDT / 2019.05.25 2100 UTC
Wind: from the WSW (240 degrees) at 3 MPH (3 KT) (direction variable):0
Visibility: greater than 7 mile(s):0
Temperature: 53 F (12 C)
Dew Point: 50 F (10 C)
Relative Humidity: 87%
Pressure (altimeter): 30.03 in. Hg (1017 hPa)
ob: LDSB 252100Z 24003KT 180V270 CAVOK 12/10 Q1017
cycle: 21

Station Type Date Time Source
LDSB TAF 2019/05/25 22:06 UTC NOAA

TAF
AMD LDSB 252203Z 2522/2618 CNL

Example: see airport list